Pagrindinis puslapis
METAR-TAF:

METAR-TAF

Oro uostai :

Cervia, Italija

platuma: 44-13N, ilguma: 012-18E, Aukštis: 6 m

Dabartinis oras

Ataskaita buvo paskelbta 1 valandą ir 1 minutes, ne 22:55 UTC
Vėjas 6 kt iš Pietvakarių
Temperatūra 8°C
Drėgmė 81%
Slėgis 1028 hPa
Matomumas 10 km arba daugiau
nėra debesų žemiau 1500 m ir nėra kamuolinių lietaus debesų

METAR: LIPC 072255Z 23006KT CAVOK 08/05 Q1028 RMK SKC VIS MIN 9999 WIND THR11 24004KT WIND THR29 25005KT BLU

Laikas: 01:56 (23:56 UTC)

Prognozė

Ataskaita buvo paskelbta 3 valandos ir 56 minutes, ne 20:00 UTC
Prognozė galioja nuo 07 metu 21 UTC su 08 metu 06 UTC
Vėjas 5 kt nuo kintamojo kryptimis
Matomumas 10 km arba daugiau
nėra debesų žemiau 1500 m ir nėra kamuolinių lietaus debesų

TAF: LIPC 072000Z 0721/0806 VRB05KT CAVOK

Orai ataskaitas ir orų prognozės (METAR, TAF).

turimą stotys yra geltonos ir raudonos taškus žemėlapyje.

Perkelti pele per norėdami pamatyti stoties vardą.

Tada spustelėkite, norėdami matyti oro stebėjimo ir prognozės.

Norėdami pakeisti žemėlapį: spustelėkite ant žalios mygtukų su juodo kryžiaus žemyn,; žalią mygtuką su brūkšneliu, jei norite nutolinti; arba žalių rodyklių gretimoms žemėlapius.


METAR-TAF: